富士山静岡空港METAR/TAF(約33km東):

RJNS 160300Z VRB03KT 9999 FEW020 SCT160 BKN/// 20/12 Q1013

TAF RJNS 151706Z 1518/1700 33005KT 9999 FEW020 BECMG 1523/1601 09005KT BECMG 1606/1609 32005KT

ソアリング用気象予報:
BLIPMAP 中部地方
中部日本航空連盟および大野グライダークラブの支援により運営されているソアリング用気象予報BLIPMAPの中部地方版です。

風向風力(Windy.com):
スマホでの閲覧には、アプリ版Windy(Android/iOS)が適切です。

EGC Icon